Altha, FL

4:38 PM CDT on July 31, 2014 (GMT -0500)
Cypress (KFLMARIA3) Elev 138 ft | 30.67 °N, 85.07 °W | Change Station

Current weather conditions updated 4 seconds ago

Clear
Clear
92.7 °F
Feels Like 102 °F
N
5.1
Wind Variable Wind from NW
Gusts 9.0 mph

Tomorrow is forecast to be nearly the same temperature as today.

Today
High -- | Low -- °F
--% Chance of Precip.
Yesterday
High -- | Low -- °F
Precip. -- in
5:58 AM 7:35 PM
Waxing Crescent, 21% visible
Pressure 29.97 in
Visibility 10.0 miles
Clouds Clear
Heat Index 102 °F
Dew Point 73 °F
Humidity 53%
Rainfall 0.00 in
Snow Depth Not available.
UV 7 out of 12
Pollen 4.10 out of 12
Air Quality Not available.
Flu Activity Not available.
METAR KMAI 312053Z AUTO 33006KT 10SM CLR 32/16 A2997 RMK AO2 SLP149 T03170161 56009

More Conditions Fewer Conditions

Pressure 29.97 in
Visibility 10.0 miles
Clouds Clear
Heat Index 102 °F
Dew Point 73 °F
Humidity 53%
Rainfall 0.00 in
Snow Depth Not available.
UV 7 out of 12
Pollen 4.10 out of 12
Air Quality Not available.
Flu Activity Not available.
METAR KMAI 312053Z AUTO 33006KT 10SM CLR 32/16 A2997 RMK AO2 SLP149 T03170161 56009

More Conditions Fewer Conditions

10-Day Weather Forecast

Almanac

Astronomy

Jul. 31, 2014 Rise Set
Actual Time 5:58 AM CDT 7:35 PM CDT
Civil Twilight 5:32 AM CDT 8:01 PM CDT
Nautical Twilight 5:00 AM CDT 8:33 PM CDT
Astronomical Twilight 4:27 AM CDT 9:06 PM CDT
Moon 10:03 AM CDT 10:11 PM CDT
Length of Visible Light 14h 29m
Length of Day
13h 37m
Tomorrow will be 1m 22s shorter.
Waxing Crescent, 21% of the Moon is Illuminated
Today
Waxing Crescent
Aug 3
First Quarter
Aug 10
Full
Aug 17
Last Quarter
Aug 25
New

Today's Extremes

State Highs State Lows

Community

WunderPhotos

Upload Photos

1,739,454 photos uploaded!

Nearby

Snow Depth

Station Depth Elevation
No new snow has been reported.

Earthquake Activity

City Distance Mag. Time & Date
No recent earthquake activity has been reported nearby.
Minimum magnitude displayed is 2.5.

Coastal Water Temperatures

Place Temperature
Panama City, FL 86.0 °F
Panama City Beach, FL 82.0 °F
Apalachicola, FL 86.0 °F

Nearby Weather Stations

Station Location Temp. Heat Index Dew Point Humidity Wind Precip. Elev Updated Type
Blountstown, FL 93.9 °F 99 °F 68 °F 43% NW  at  4.0 mph 0.00 in / hr 76 ft 3:35 PM CDT Rapid Fire
Cypress, Marianna, FL 92.7 °F 102 °F 73 °F 53% NW  at  5.1 mph 0.00 in / hr 138 ft 4:38 PM CDT Rapid Fire
Silver Lake Road, Fountain, FL 90.3 °F 99 °F 73 °F 57% West  at  5.8 mph 0.00 in / hr 178 ft 4:38 PM EST Rapid Fire

Show More Stations Show Fewer Stations